Time;durP1;ratioP1;P1;durP2;ratioP2;P2;SDS_P1;SDS_P2;PMS_P1;PMS_P2;Temp;Humidity;BMP_temperature;BMP_pressure;BME280_temperature;BME280_humidity;BME280_pressure;Samples;Min_cycle;Max_cycle;Signal;HPM_P1;HPM_P2
2024/01/22 00:00:08;;;;;;;21.60;13.60;;;;;;;-0.02;65.56;102218.10;109595;1252;59026;-78
2024/01/22 00:02:40;;;;;;;19.70;12.20;;;;;;;-0.04;65.54;102219.33;109553;1253;62854;-77
2024/01/22 00:05:07;;;;;;;20.10;12.50;;;;;;;-0.05;65.55;102222.29;109222;1253;58928;-78
2024/01/22 00:07:35;;;;;;;20.80;13.10;;;;;;;-0.07;65.52;102224.73;109547;1253;58815;-78
2024/01/22 00:10:03;;;;;;;22.30;13.40;;;;;;;-0.08;65.54;102225.09;109389;1254;65907;-78
2024/01/22 00:12:30;;;;;;;21.40;12.60;;;;;;;-0.08;65.52;102224.04;109598;1253;59027;-77
2024/01/22 00:14:57;;;;;;;21.50;13.50;;;;;;;-0.08;65.57;102223.35;109609;1253;63748;-78
2024/01/22 00:17:23;;;;;;;22.60;13.60;;;;;;;-0.09;65.57;102227.33;109553;1253;59045;-79
2024/01/22 00:19:50;;;;;;;21.10;12.60;;;;;;;-0.08;65.61;102231.31;109417;1253;58893;-77
2024/01/22 00:22:16;;;;;;;22.10;14.00;;;;;;;-0.08;65.63;102232.70;109567;1252;64605;-79
2024/01/22 00:24:43;;;;;;;22.60;13.70;;;;;;;-0.07;65.65;102234.08;109587;1253;58952;-78
2024/01/22 00:27:10;;;;;;;22.00;13.10;;;;;;;-0.08;65.64;102235.83;109375;1255;62706;-78
2024/01/22 00:29:37;;;;;;;24.90;13.70;;;;;;;-0.08;65.69;102237.90;109549;1252;58939;-78
2024/01/22 00:32:04;;;;;;;22.50;13.20;;;;;;;-0.08;65.56;102238.59;109425;1252;59050;-78
2024/01/22 00:39:21;;;;;;;24.00;14.00;;;;;;;-0.09;65.68;102245.00;109570;1253;59099;-79
2024/01/22 00:41:48;;;;;;;24.30;14.70;;;;;;;-0.11;65.75;102246.55;109548;1253;63735;-79
2024/01/22 00:44:15;;;;;;;25.50;15.00;;;;;;;-0.12;65.74;102246.21;109389;1253;58846;-78
2024/01/22 00:46:42;;;;;;;26.30;14.40;;;;;;;-0.13;65.77;102246.56;109654;1252;58982;-79
2024/01/22 00:49:08;;;;;;;23.90;14.50;;;;;;;-0.15;65.82;102249.01;109579;1253;65816;-78
2024/01/22 00:51:36;;;;;;;24.60;15.00;;;;;;;-0.15;65.92;102248.50;109419;1252;59059;-77
2024/01/22 00:54:03;;;;;;;25.60;14.10;;;;;;;-0.15;65.81;102251.09;109446;1252;62737;-78
2024/01/22 00:56:30;;;;;;;25.80;14.90;;;;;;;-0.15;65.83;102250.56;109532;1253;59261;-78
2024/01/22 00:58:56;;;;;;;25.10;14.90;;;;;;;-0.16;65.81;102248.16;109420;1252;58996;-79
2024/01/22 01:01:23;;;;;;;23.90;14.60;;;;;;;-0.17;65.92;102251.11;109442;1252;65866;-79
2024/01/22 01:03:50;;;;;;;24.60;14.10;;;;;;;-0.18;65.91;102251.80;109560;1253;59009;-78
2024/01/22 01:06:17;;;;;;;24.20;14.70;;;;;;;-0.20;65.79;102250.92;109547;1253;63825;-76
2024/01/22 01:08:44;;;;;;;25.30;14.70;;;;;;;-0.20;65.82;102246.42;109392;1253;58991;-77
2024/01/22 01:11:11;;;;;;;19.30;13.10;;;;;;;-0.20;65.89;102245.91;109551;1253;58920;-78
2024/01/22 01:13:38;;;;;;;19.30;12.80;;;;;;;-0.21;65.93;102244.02;109408;1253;65747;-79
2024/01/22 01:16:05;;;;;;;21.70;13.40;;;;;;;-0.24;65.93;102235.90;109564;1253;59006;-78
2024/01/22 01:18:31;;;;;;;21.40;13.40;;;;;;;-0.26;65.91;102236.09;109408;1253;64445;-76
2024/01/22 01:20:58;;;;;;;20.00;12.90;;;;;;;-0.27;65.92;102233.50;109353;1254;59086;-81
2024/01/22 01:23:25;;;;;;;19.50;12.50;;;;;;;-0.27;65.96;102234.19;109404;1253;59275;-79
2024/01/22 01:25:52;;;;;;;20.70;13.10;;;;;;;-0.27;65.89;102231.59;109543;1253;64607;-77
2024/01/22 01:28:19;;;;;;;22.70;14.00;;;;;;;-0.28;65.82;102228.84;109457;1253;59023;-78
2024/01/22 01:30:46;;;;;;;22.60;13.70;;;;;;;-0.28;65.73;102231.77;109283;1253;62614;-78
2024/01/22 01:33:13;;;;;;;21.40;13.70;;;;;;;-0.31;65.78;102229.86;109446;1255;59004;-78
2024/01/22 01:35:43;;;;;;;23.80;13.70;;;;;;;-0.33;65.79;102226.41;109616;1253;59054;-77
2024/01/22 01:38:10;;;;;;;21.70;13.30;;;;;;;-0.34;65.82;102229.55;109274;1253;65825;-78
2024/01/22 01:40:40;;;;;;;21.90;13.20;;;;;;;-0.35;65.80;102228.67;109540;1253;58948;-77
2024/01/22 01:48:03;;;;;;;20.50;12.90;;;;;;;-0.42;65.80;102232.00;109549;1253;58951;-76
2024/01/22 01:50:30;;;;;;;22.80;13.80;;;;;;;-0.45;65.91;102236.17;109534;1253;59537;-78
2024/01/22 01:52:57;;;;;;;23.50;14.70;;;;;;;-0.45;65.86;102238.95;109577;1253;65794;-79
2024/01/22 01:55:23;;;;;;;22.20;14.30;;;;;;;-0.45;65.86;102236.69;109423;1253;58994;-78
2024/01/22 01:57:50;;;;;;;22.00;13.50;;;;;;;-0.46;65.84;102239.29;109524;1253;63707;-76
2024/01/22 02:00:26;;;;;;;22.40;14.00;;;;;;;-0.45;65.87;102242.23;109371;1254;59038;-79
2024/01/22 02:02:54;;;;;;;24.60;14.00;;;;;;;-0.46;65.91;102242.75;109267;1253;59073;-79
2024/01/22 02:05:22;;;;;;;21.10;14.00;;;;;;;-0.47;65.80;102242.06;109434;1253;64631;-79
2024/01/22 02:07:49;;;;;;;21.70;13.90;;;;;;;-0.49;65.84;102242.40;109205;1253;59013;-79
2024/01/22 02:10:16;;;;;;;20.70;13.00;;;;;;;-0.50;65.91;102240.33;109311;1253;63820;-78
2024/01/22 02:12:44;;;;;;;23.50;14.80;;;;;;;-0.50;65.94;102240.50;109460;1253;59023;-78
2024/01/22 02:15:11;;;;;;;23.50;14.50;;;;;;;-0.50;65.97;102245.00;109341;1253;58925;-77
2024/01/22 02:17:38;;;;;;;22.70;14.70;;;;;;;-0.50;65.97;102247.42;109319;1253;64597;-79
2024/01/22 02:20:07;;;;;;;22.20;15.30;;;;;;;-0.50;66.01;102245.87;109448;1253;58955;-79
2024/01/22 02:22:34;;;;;;;25.60;14.70;;;;;;;-0.50;65.97;102246.39;109458;1253;64249;-79
2024/01/22 02:25:01;;;;;;;22.00;14.20;;;;;;;-0.50;66.00;102243.45;109457;1253;58989;-79
2024/01/22 02:27:28;;;;;;;23.10;14.80;;;;;;;-0.50;65.94;102244.14;109516;1253;58819;-76
2024/01/22 02:29:56;;;;;;;23.00;14.00;;;;;;;-0.49;65.98;102241.88;109470;1253;64852;-79
2024/01/22 02:32:23;;;;;;;22.40;14.30;;;;;;;-0.49;65.92;102244.31;109458;1253;59027;-79
2024/01/22 02:34:50;;;;;;;17.90;13.00;;;;;;;-0.50;65.84;102251.23;109425;1253;64051;-79
2024/01/22 02:37:17;;;;;;;22.60;15.00;;;;;;;-0.49;65.88;102254.69;109446;1253;58867;-78
2024/01/22 02:39:44;;;;;;;22.20;14.50;;;;;;;-0.49;65.84;102255.89;109491;1253;58989;-78
2024/01/22 02:42:11;;;;;;;20.30;13.20;;;;;;;-0.48;65.91;102256.94;109474;1253;65128;-77
2024/01/22 02:44:40;;;;;;;16.40;12.30;;;;;;;-0.47;65.93;102261.97;109510;1253;58904;-78
2024/01/22 02:47:07;;;;;;;19.60;12.10;;;;;;;-0.48;65.83;102261.45;109473;1253;64010;-79
2024/01/22 02:49:34;;;;;;;18.30;12.60;;;;;;;-0.51;65.87;102265.78;109447;1253;58919;-79
2024/01/22 02:52:01;;;;;;;18.50;12.50;;;;;;;-0.54;65.89;102265.96;109493;1253;58842;-78
2024/01/22 02:54:28;;;;;;;18.40;12.60;;;;;;;-0.53;65.81;102269.95;109464;1257;65850;-79
2024/01/22 02:56:55;;;;;;;19.80;12.30;;;;;;;-0.53;65.82;102273.75;109434;1253;59021;-79
2024/01/22 02:59:22;;;;;;;16.40;11.60;;;;;;;-0.53;65.76;102280.67;109411;1254;64202;-79
2024/01/22 03:01:49;;;;;;;17.70;12.00;;;;;;;-0.53;65.81;102288.11;109448;1253;58943;-77
2024/01/22 03:04:18;;;;;;;20.10;13.30;;;;;;;-0.52;65.82;102292.95;109468;1254;58989;-79
2024/01/22 03:06:47;;;;;;;17.00;12.20;;;;;;;-0.51;65.95;102298.83;109167;1254;65919;-79
2024/01/22 03:09:17;;;;;;;17.40;11.70;;;;;;;-0.51;65.88;102296.91;109402;1254;59022;-79
2024/01/22 03:11:46;;;;;;;20.20;11.90;;;;;;;-0.52;65.83;102291.56;109434;1254;62721;-77
2024/01/22 03:14:15;;;;;;;16.00;11.10;;;;;;;-0.52;65.85;102294.85;109422;1254;58977;-78
2024/01/22 03:16:43;;;;;;;17.50;11.40;;;;;;;-0.50;65.85;102294.66;109385;1254;59039;-80
2024/01/22 03:19:13;;;;;;;14.10;10.30;;;;;;;-0.50;65.75;102295.02;109393;1254;74856;-80
2024/01/22 03:21:42;;;;;;;15.80;10.60;;;;;;;-0.50;65.59;102293.27;109262;1254;59061;-78
2024/01/22 03:24:13;;;;;;;17.00;10.20;;;;;;;-0.51;65.49;102292.25;109407;1254;63865;-78
2024/01/22 03:26:42;;;;;;;16.00;11.00;;;;;;;-0.54;65.53;102292.27;109396;1254;58934;-80
2024/01/22 03:29:12;;;;;;;15.30;10.70;;;;;;;-0.56;65.57;102290.21;109420;1254;58909;-78
2024/01/22 03:31:42;;;;;;;17.90;11.20;;;;;;;-0.57;65.54;102291.60;109425;1254;64745;-78
2024/01/22 03:34:12;;;;;;;15.00;11.20;;;;;;;-0.57;65.45;102295.05;109482;1254;58921;-79
2024/01/22 03:36:42;;;;;;;16.20;10.90;;;;;;;-0.59;65.35;102300.73;109414;1254;63913;-79
2024/01/22 03:39:11;;;;;;;15.70;10.50;;;;;;;-0.59;65.41;102301.09;109402;1254;58910;-75
2024/01/22 03:41:42;;;;;;;20.00;12.40;;;;;;;-0.59;65.44;102297.80;109463;1254;58828;-78
2024/01/22 03:44:11;;;;;;;16.60;11.50;;;;;;;-0.61;65.46;102296.78;109458;1254;64647;-78
2024/01/22 03:46:39;;;;;;;15.50;10.90;;;;;;;-0.61;65.53;102297.82;109434;1254;59335;-78
2024/01/22 03:49:09;;;;;;;14.80;10.90;;;;;;;-0.61;65.46;102303.52;109444;1254;63685;-75
2024/01/22 03:51:38;;;;;;;16.30;11.10;;;;;;;-0.62;65.45;102306.48;109078;1254;468358;-79
2024/01/22 03:54:06;;;;;;;14.80;11.10;;;;;;;-0.63;65.46;102301.63;109427;1254;58846;-79
2024/01/22 03:56:35;;;;;;;16.10;11.20;;;;;;;-0.64;65.41;102306.30;109456;1254;66039;-79
2024/01/22 03:59:05;;;;;;;15.90;11.20;;;;;;;-0.66;65.46;102314.10;109465;1254;59081;-79
2024/01/22 04:01:35;;;;;;;14.30;10.50;;;;;;;-0.66;65.40;102315.48;109476;1254;63805;-78
2024/01/22 04:10:26;;;;;;;16.30;11.60;;;;;;;-0.66;65.37;102297.35;102605;1293;600604;-79
2024/01/22 04:12:55;;;;;;;17.50;11.60;;;;;;;-0.69;65.30;102303.36;104795;1270;59306;-78
2024/01/22 04:15:26;;;;;;;24.70;14.70;;;;;;;-0.69;65.21;102307.16;105149;1267;59388;-77
2024/01/22 04:17:53;;;;;;;24.00;15.60;;;;;;;-0.73;65.19;102305.29;105034;1272;63259;-75
2024/01/22 04:20:21;;;;;;;22.30;14.70;;;;;;;-0.74;65.23;102303.73;104822;1267;59340;-74
2024/01/22 04:22:51;;;;;;;21.40;13.20;;;;;;;-0.74;65.32;102308.24;104771;1267;63727;-74
2024/01/22 04:25:19;;;;;;;20.00;13.20;;;;;;;-0.74;65.33;102311.17;105023;1269;59090;-74
2024/01/22 04:27:46;;;;;;;18.10;12.90;;;;;;;-0.74;65.35;102312.21;105502;1261;59245;-75
2024/01/22 04:30:14;;;;;;;21.40;12.60;;;;;;;-0.76;65.31;102310.66;105427;1266;63257;-76
2024/01/22 04:39:11;;;;;;;20.00;12.30;;;;;;;-0.83;65.30;102311.02;102789;1293;600741;-82
2024/01/22 04:41:38;;;;;;;18.30;12.90;;;;;;;-0.87;65.38;102309.29;105163;1267;59225;-81
2024/01/22 04:44:06;;;;;;;19.40;13.10;;;;;;;-0.87;65.33;102306.69;105160;1267;59455;-79
2024/01/22 04:46:34;;;;;;;20.40;13.90;;;;;;;-0.88;65.39;102307.89;104765;1274;63373;-82
2024/01/22 04:49:01;;;;;;;23.50;13.80;;;;;;;-0.88;65.39;102305.30;105076;1270;59463;-79
2024/01/22 04:51:29;;;;;;;18.20;12.10;;;;;;;-0.88;65.36;102308.77;108525;1269;63719;-79
2024/01/22 04:53:57;;;;;;;20.20;12.70;;;;;;;-0.92;65.34;102309.46;108469;1264;196552;-78
2024/01/22 04:56:25;;;;;;;21.10;13.60;;;;;;;-0.94;65.34;102307.74;108495;1265;57744;-78
2024/01/22 04:58:52;;;;;;;21.90;12.90;;;;;;;-0.97;65.35;102305.66;108543;1264;63390;-80
2024/01/22 05:01:20;;;;;;;24.70;14.90;;;;;;;-1.03;65.28;102306.89;108732;1264;67018;-80
2024/01/22 05:03:47;;;;;;;23.20;16.10;;;;;;;-1.07;65.28;102311.54;108672;1266;62691;-80
2024/01/22 05:06:15;;;;;;;21.70;14.00;;;;;;;-1.09;65.38;102316.73;108696;1266;57394;-79
2024/01/22 05:13:18;;;;;;;23.10;15.10;;;;;;;-1.11;65.53;102314.32;108708;1267;64091;-78
2024/01/22 05:15:45;;;;;;;23.00;14.80;;;;;;;-1.12;65.59;102315.02;108655;1265;58172;-79
2024/01/22 05:18:13;;;;;;;24.60;15.70;;;;;;;-1.12;65.57;102318.47;108697;1265;63809;-79
2024/01/22 05:20:40;;;;;;;23.80;15.90;;;;;;;-1.11;65.66;102318.12;108701;1265;57478;-80
2024/01/22 05:23:08;;;;;;;27.60;17.40;;;;;;;-1.11;65.65;102320.20;108661;1265;57455;-78
2024/01/22 05:25:36;;;;;;;23.20;16.40;;;;;;;-1.09;65.68;102322.27;108736;1266;62926;-74
2024/01/22 05:28:05;;;;;;;25.70;17.60;;;;;;;-1.08;65.74;102320.01;108631;1265;58376;-77
2024/01/22 05:30:33;;;;;;;30.90;22.50;;;;;;;-1.06;65.74;102318.98;108724;1266;63836;-75
2024/01/22 05:33:00;;;;;;;24.20;17.30;;;;;;;-1.06;65.64;102320.20;108758;1266;57429;-75
2024/01/22 05:35:28;;;;;;;24.60;16.80;;;;;;;-1.08;65.69;102318.46;108712;1264;57429;-76
2024/01/22 05:37:55;;;;;;;28.80;19.60;;;;;;;-1.10;65.68;102320.02;108710;1267;62858;-75
2024/01/22 05:40:24;;;;;;;26.10;17.80;;;;;;;-1.11;65.75;102317.77;108648;1264;58349;-79
2024/01/22 05:42:51;;;;;;;27.20;18.70;;;;;;;-1.09;65.81;102313.80;108616;1266;63891;-76
2024/01/22 05:45:19;;;;;;;25.60;18.90;;;;;;;-1.08;65.80;102311.88;108733;1265;57338;-78
2024/01/22 05:47:47;;;;;;;25.30;17.50;;;;;;;-1.07;65.87;102315.86;108584;1269;58870;-74
2024/01/22 05:50:15;;;;;;;26.60;17.70;;;;;;;-1.06;65.87;102316.21;108543;1269;62856;-71
2024/01/22 05:52:42;;;;;;;24.20;16.30;;;;;;;-1.07;65.84;102320.36;109439;1253;57385;-72
2024/01/22 05:55:10;;;;;;;24.50;16.20;;;;;;;-1.07;65.86;102322.08;109582;1254;63819;-72
2024/01/22 05:57:37;;;;;;;29.70;18.30;;;;;;;-1.05;65.79;102317.77;109455;1254;57280;-72
2024/01/22 06:00:13;;;;;;;24.90;17.70;;;;;;;-1.05;65.76;102316.05;109496;1253;57291;-75
2024/01/22 06:07:08;;;;;;;38.10;22.50;;;;;;;-1.07;65.79;102324.34;109611;1254;58707;-73
2024/01/22 06:09:37;;;;;;;36.30;22.20;;;;;;;-1.12;65.82;102327.29;109314;1254;63712;-72
2024/01/22 06:12:06;;;;;;;36.10;22.80;;;;;;;-1.12;65.86;102332.12;109297;1254;57331;-73
2024/01/22 06:14:33;;;;;;;38.80;23.10;;;;;;;-1.11;65.89;102332.30;109585;1252;57245;-72
2024/01/22 06:17:01;;;;;;;43.80;24.70;;;;;;;-1.09;66.00;102335.75;109614;1252;64226;-75
2024/01/22 06:19:28;;;;;;;38.10;22.60;;;;;;;-1.07;65.90;102346.11;109590;1257;57407;-79
2024/01/22 06:21:56;;;;;;;41.30;25.20;;;;;;;-1.08;65.90;102359.26;109341;1254;62473;-78
2024/01/22 06:24:24;;;;;;;46.30;26.70;;;;;;;-1.07;66.03;102364.11;109327;1255;57345;-73
2024/01/22 06:26:52;;;;;;;44.40;29.00;;;;;;;-1.03;66.06;102364.30;109592;1257;57209;-72
2024/01/22 06:29:20;;;;;;;40.00;26.20;;;;;;;-1.00;66.01;102359.09;109459;1254;64284;-73
2024/01/22 06:31:47;;;;;;;44.00;28.70;;;;;;;-0.98;65.95;102353.39;109562;1253;58189;-73
2024/01/22 06:34:15;;;;;;;40.90;26.40;;;;;;;-0.99;65.98;102356.48;109199;1254;63846;-72
2024/01/22 06:36:43;;;;;;;42.10;26.70;;;;;;;-0.97;66.04;102361.50;109391;1259;57401;-72
2024/01/22 06:39:10;;;;;;;34.80;23.70;;;;;;;-0.95;65.99;102361.52;109464;1253;57471;-71
2024/01/22 06:41:38;;;;;;;44.70;30.70;;;;;;;-0.95;65.99;102359.80;109597;1252;64197;-74
2024/01/22 06:44:06;;;;;;;37.70;24.30;;;;;;;-0.97;66.01;102364.45;109588;1258;58307;-73
2024/01/22 06:46:34;;;;;;;39.20;24.60;;;;;;;-0.97;66.02;102367.21;109597;1254;63800;-73
2024/01/22 06:49:01;;;;;;;37.30;25.70;;;;;;;-0.96;66.10;102367.40;109420;1254;57433;-72
2024/01/22 06:51:37;;;;;;;39.00;24.80;;;;;;;-0.94;66.15;102365.33;109433;1257;57409;-73
2024/01/22 06:54:13;;;;;;;40.80;24.90;;;;;;;-0.89;66.19;102367.22;109588;1252;64165;-72
2024/01/22 06:56:41;;;;;;;40.00;26.00;;;;;;;-0.83;66.16;102365.15;109603;1254;58130;-76
2024/01/22 06:59:09;;;;;;;45.90;27.60;;;;;;;-0.79;66.22;102369.28;109424;1254;62473;-76
2024/01/22 07:01:36;;;;;;;41.80;26.80;;;;;;;-0.75;66.21;102370.85;109579;1254;57273;-78
2024/01/22 07:04:04;;;;;;;40.30;25.80;;;;;;;-0.71;66.22;102371.18;109299;1253;59267;-77
2024/01/22 07:06:32;;;;;;;42.90;25.70;;;;;;;-0.71;66.09;102366.34;109373;1253;64121;-76
2024/01/22 07:09:00;;;;;;;46.00;26.80;;;;;;;-0.71;66.10;102364.79;109352;1254;57397;-75
2024/01/22 07:16:02;;;;;;;47.70;26.50;;;;;;;-0.69;66.09;102353.01;109453;1254;57266;-76
2024/01/22 07:18:29;;;;;;;51.50;30.00;;;;;;;-0.69;66.12;102349.38;109371;1254;57288;-76
2024/01/22 07:20:58;;;;;;;38.30;25.00;;;;;;;-0.71;65.97;102349.91;109310;1259;66267;-78
2024/01/22 07:23:26;;;;;;;42.70;25.70;;;;;;;-0.77;65.90;102346.63;109300;1254;57458;-75
2024/01/22 07:25:57;;;;;;;40.60;24.40;;;;;;;-0.80;66.02;102343.86;109293;1254;63801;-73
2024/01/22 07:28:25;;;;;;;45.30;26.60;;;;;;;-0.79;66.16;102341.95;109480;1254;57355;-76
2024/01/22 07:30:52;;;;;;;47.50;29.90;;;;;;;-0.79;66.12;102339.19;109466;1254;57167;-71
2024/01/22 07:33:20;;;;;;;52.60;31.40;;;;;;;-0.80;66.13;102335.20;109491;1257;64066;-72
2024/01/22 07:35:47;;;;;;;56.00;33.00;;;;;;;-0.80;66.11;102330.89;109313;1255;57417;-73
2024/01/22 07:38:15;;;;;;;53.90;32.40;;;;;;;-0.80;66.20;102334.34;109186;1254;62574;-72
2024/01/22 07:40:43;;;;;;;55.00;32.50;;;;;;;-0.80;66.22;102336.94;109215;1253;57337;-72
2024/01/22 07:43:10;;;;;;;55.20;31.40;;;;;;;-0.79;66.25;102334.69;109294;1253;57284;-71
2024/01/22 07:45:38;;;;;;;51.00;32.40;;;;;;;-0.75;66.30;102335.40;109348;1254;62865;-72
2024/01/22 07:48:06;;;;;;;43.90;27.50;;;;;;;-0.76;66.23;102338.86;109316;1254;59020;-73
2024/01/22 07:50:35;;;;;;;56.00;32.40;;;;;;;-0.75;66.27;102335.91;109447;1254;73878;-72
2024/01/22 07:57:34;;;;;;;56.10;32.10;;;;;;;-0.68;66.43;102324.48;109466;1254;57387;-72
2024/01/22 08:00:02;;;;;;;54.20;31.90;;;;;;;-0.61;66.52;102321.17;109195;1254;64182;-73
2024/01/22 08:02:33;;;;;;;56.00;31.20;;;;;;;-0.53;66.58;102319.60;109370;1253;57389;-71
2024/01/22 08:05:01;;;;;;;52.90;31.10;;;;;;;-0.47;66.51;102320.97;109403;1257;63696;-70
2024/01/22 08:07:28;;;;;;;48.80;28.90;;;;;;;-0.42;66.53;102323.38;109395;1254;57411;-72
2024/01/22 08:09:56;;;;;;;46.60;28.80;;;;;;;-0.39;66.45;102332.02;109192;1254;57317;-73
2024/01/22 08:12:24;;;;;;;43.10;27.60;;;;;;;-0.37;66.33;102338.77;109166;1254;64167;-69
2024/01/22 08:14:52;;;;;;;44.90;28.60;;;;;;;-0.35;66.29;102340.16;109225;1254;58307;-72
2024/01/22 08:17:20;;;;;;;42.40;28.80;;;;;;;-0.33;66.28;102334.61;109151;1254;62650;-73
2024/01/22 08:19:47;;;;;;;38.00;26.00;;;;;;;-0.31;66.25;102335.11;109286;1254;57244;-70
2024/01/22 08:22:15;;;;;;;36.50;25.70;;;;;;;-0.31;66.21;102333.38;109193;1254;57483;-71
2024/01/22 08:24:43;;;;;;;37.80;26.30;;;;;;;-0.26;66.28;102337.87;109307;1254;64261;-72
2024/01/22 08:27:10;;;;;;;38.80;25.30;;;;;;;-0.21;66.26;102341.83;109173;1254;58258;-72
2024/01/22 08:29:38;;;;;;;38.50;25.10;;;;;;;-0.16;66.19;102346.84;109451;1254;62678;-72
2024/01/22 08:32:06;;;;;;;37.40;25.70;;;;;;;-0.12;66.27;102353.56;109407;1254;57404;-72
2024/01/22 08:34:38;;;;;;;36.80;25.70;;;;;;;-0.05;66.27;102357.36;109091;1254;57373;-72
2024/01/22 08:37:07;;;;;;;40.50;28.50;;;;;;;0.01;66.17;102346.77;109347;1254;62957;-72
2024/01/22 08:39:37;;;;;;;40.20;27.30;;;;;;;0.04;66.13;102346.41;109289;1254;65265;-71
2024/01/22 08:42:04;;;;;;;37.20;25.20;;;;;;;0.10;66.09;102354.36;109416;1254;65678;-73
2024/01/22 08:44:32;;;;;;;39.90;25.50;;;;;;;0.15;66.08;102354.68;109132;1263;57258;-72
2024/01/22 08:46:59;;;;;;;41.60;27.80;;;;;;;0.17;65.94;102353.27;109290;1254;61590;-70
2024/01/22 08:49:31;;;;;;;38.70;25.80;;;;;;;0.22;65.86;102355.52;109439;1254;62847;-70
2024/01/22 08:52:03;;;;;;;43.60;26.80;;;;;;;0.25;65.80;102359.13;109159;1255;57452;-71
2024/01/22 08:54:30;;;;;;;42.80;26.70;;;;;;;0.27;65.78;102352.89;109417;1254;65060;-70
2024/01/22 08:56:58;;;;;;;42.10;26.70;;;;;;;0.30;65.67;102347.34;109277;1257;58192;-72
2024/01/22 08:59:26;;;;;;;44.20;29.40;;;;;;;0.34;65.59;102342.11;109404;1254;62580;-71
2024/01/22 09:01:53;;;;;;;37.70;26.70;;;;;;;0.38;65.65;102334.98;109430;1254;67196;-71
2024/01/22 09:04:41;;;;;;;36.80;25.80;;;;;;;0.39;65.44;102331.51;109190;1255;58452;-72
2024/01/22 09:07:09;;;;;;;41.80;26.90;;;;;;;0.38;65.37;102327.86;109275;1255;62409;-72
2024/01/22 09:09:37;;;;;;;42.60;27.10;;;;;;;0.43;65.37;102327.33;109132;1256;58174;-71
2024/01/22 09:12:04;;;;;;;41.80;27.40;;;;;;;0.49;65.33;102320.70;109280;1257;61961;-69
2024/01/22 09:14:32;;;;;;;43.30;29.60;;;;;;;0.53;65.27;102318.23;109297;1256;64286;-69
2024/01/22 09:17:00;;;;;;;46.30;29.10;;;;;;;0.55;65.12;102315.80;109367;1256;58389;-70
2024/01/22 09:19:28;;;;;;;40.30;27.60;;;;;;;0.52;65.02;102312.19;109249;1255;63795;-69
2024/01/22 09:21:57;;;;;;;39.50;25.50;;;;;;;0.51;64.90;102309.26;109090;1260;58185;-71
2024/01/22 09:24:24;;;;;;;38.40;26.00;;;;;;;0.48;64.80;102310.65;109258;1257;58205;-69
2024/01/22 09:26:52;;;;;;;44.30;26.50;;;;;;;0.46;64.86;102314.12;109313;1256;63706;-70
2024/01/22 09:29:20;;;;;;;35.30;24.20;;;;;;;0.44;64.84;102316.91;109142;1256;58240;-69
2024/01/22 09:31:48;;;;;;;41.20;25.70;;;;;;;0.41;64.73;102313.65;109095;1257;74878;-70
2024/01/22 09:34:16;;;;;;;36.90;24.20;;;;;;;0.37;64.69;102312.98;109380;1257;58063;-70
2024/01/22 09:36:44;;;;;;;35.10;23.70;;;;;;;0.37;64.82;102315.73;109279;1256;58015;-70
2024/01/22 09:39:12;;;;;;;33.80;22.50;;;;;;;0.41;64.97;102316.94;109177;1256;64919;-75
2024/01/22 09:41:40;;;;;;;36.90;24.70;;;;;;;0.46;64.94;102321.05;109126;1255;58720;-73
2024/01/22 09:44:08;;;;;;;32.00;21.00;;;;;;;0.49;64.83;102322.96;109275;1257;63757;-74
2024/01/22 09:46:36;;;;;;;33.00;21.70;;;;;;;0.48;64.47;102322.95;109258;1257;58083;-73
2024/01/22 09:53:47;;;;;;;27.30;18.70;;;;;;;0.52;64.26;102312.88;109256;1256;65027;-73
2024/01/22 09:56:20;;;;;;;34.50;21.90;;;;;;;0.52;64.17;102307.15;108998;1256;58242;-74
2024/01/22 09:58:48;;;;;;;31.70;19.80;;;;;;;0.52;64.10;102298.14;109217;1255;63745;-72
2024/01/22 10:01:16;;;;;;;31.90;20.20;;;;;;;0.52;64.04;102299.36;109098;1257;58209;-72
2024/01/22 10:03:44;;;;;;;33.40;20.40;;;;;;;0.53;64.04;102295.54;109021;1257;58091;-73
2024/01/22 10:06:12;;;;;;;27.10;18.20;;;;;;;0.56;63.99;102291.86;109187;1257;65287;-73
2024/01/22 10:08:41;;;;;;;25.20;17.90;;;;;;;0.57;63.75;102291.51;109069;1258;59247;-73
2024/01/22 10:11:08;;;;;;;26.40;18.00;;;;;;;0.54;63.72;102290.49;109247;1257;74954;-73
2024/01/22 10:13:56;;;;;;;28.50;19.00;;;;;;;0.53;63.74;102284.45;109229;1256;58103;-73
2024/01/22 10:16:28;;;;;;;28.50;19.40;;;;;;;0.53;63.75;102270.23;109259;1257;58055;-73
2024/01/22 10:19:07;;;;;;;31.90;20.70;;;;;;;0.57;63.84;102259.98;109208;1257;65155;-73
2024/01/22 10:21:36;;;;;;;29.00;19.10;;;;;;;0.60;63.87;102252.49;109162;1257;58231;-74
2024/01/22 10:24:06;;;;;;;29.00;18.80;;;;;;;0.62;63.80;102254.90;109154;1257;64842;-74
2024/01/22 10:26:34;;;;;;;26.70;18.10;;;;;;;0.63;63.69;102246.74;109221;1255;58191;-74
2024/01/22 10:29:17;;;;;;;27.00;17.20;;;;;;;0.66;63.70;102246.19;109245;1255;62270;-74
2024/01/22 10:31:56;;;;;;;31.00;20.20;;;;;;;0.69;63.69;102242.73;109200;1255;65787;-73
2024/01/22 10:34:53;;;;;;;34.10;21.10;;;;;;;0.67;63.64;102235.61;109237;1257;69089;-75
2024/01/22 10:37:21;;;;;;;29.50;19.80;;;;;;;0.70;63.59;102234.38;109228;1256;74828;-74
2024/01/22 10:40:00;;;;;;;27.90;19.30;;;;;;;0.72;63.51;102230.38;109235;1256;58492;-74
2024/01/22 10:42:29;;;;;;;30.00;18.90;;;;;;;0.74;63.55;102225.66;109075;1260;58253;-72
2024/01/22 10:44:57;;;;;;;26.40;17.90;;;;;;;0.77;63.47;102220.27;109150;1256;75881;-73
2024/01/22 10:47:25;;;;;;;30.20;19.30;;;;;;;0.75;63.17;102218.73;109156;1257;58378;-72
2024/01/22 10:49:55;;;;;;;35.20;21.80;;;;;;;0.76;63.00;102206.05;109131;1256;74863;-71
2024/01/22 10:52:23;;;;;;;32.00;21.50;;;;;;;0.77;62.89;102198.77;109124;1256;58121;-72
2024/01/22 10:54:51;;;;;;;23.50;16.10;;;;;;;0.81;62.89;102196.30;109236;1256;59181;-73
2024/01/22 10:57:37;;;;;;;27.20;18.20;;;;;;;0.84;62.43;102192.61;109234;1256;65081;-73
2024/01/22 11:00:07;;;;;;;23.40;15.60;;;;;;;0.86;62.15;102185.84;109166;1257;58184;-73
2024/01/22 11:02:35;;;;;;;23.50;15.90;;;;;;;0.86;61.95;102182.72;109059;1257;63862;-72
2024/01/22 11:05:06;;;;;;;25.30;17.20;;;;;;;0.82;61.65;102180.34;109105;1257;58084;-72
2024/01/22 11:07:39;;;;;;;28.40;18.50;;;;;;;0.76;61.49;102178.48;109057;1256;62225;-72
2024/01/22 11:10:12;;;;;;;26.40;17.40;;;;;;;0.69;61.44;102177.52;109138;1256;76292;-73
2024/01/22 11:13:09;;;;;;;25.30;16.00;;;;;;;0.67;61.46;102184.11;109065;1257;59167;-73
2024/01/22 11:20:22;;;;;;;26.30;17.00;;;;;;;0.61;61.64;102185.75;109147;1257;58098;-74
2024/01/22 11:23:04;;;;;;;26.20;17.70;;;;;;;0.59;61.70;102186.12;109084;1256;58255;-71
2024/01/22 11:25:35;;;;;;;30.70;19.60;;;;;;;0.60;61.90;102183.86;109172;1257;63753;-77
2024/01/22 11:28:15;;;;;;;24.30;17.30;;;;;;;0.60;62.01;102179.70;109135;1256;60492;-80
2024/01/22 11:30:47;;;;;;;24.10;16.40;;;;;;;0.59;62.01;102186.64;109152;1256;65955;-73
2024/01/22 11:33:31;;;;;;;27.50;17.20;;;;;;;0.59;62.06;102190.46;109182;1257;61786;-74
2024/01/22 11:36:02;;;;;;;31.10;20.70;;;;;;;0.59;62.13;102194.45;109127;1257;58106;-76
2024/01/22 11:38:52;;;;;;;32.00;20.80;;;;;;;0.61;62.23;102193.73;109152;1256;67227;-75
2024/01/22 11:41:40;;;;;;;29.00;19.10;;;;;;;0.62;62.15;102194.58;109195;1256;67805;-74
2024/01/22 11:44:12;;;;;;;22.10;15.70;;;;;;;0.60;62.01;102189.39;109117;1257;63444;-74
2024/01/22 11:46:44;;;;;;;22.90;16.30;;;;;;;0.58;61.92;102187.34;109136;1256;58184;-74
2024/01/22 11:49:15;;;;;;;23.10;16.00;;;;;;;0.55;61.69;102184.23;109126;1256;58086;-72
2024/01/22 11:51:46;;;;;;;22.60;15.20;;;;;;;0.53;61.54;102180.10;109099;1256;64902;-71
2024/01/22 11:54:17;;;;;;;20.90;14.50;;;;;;;0.52;61.30;102174.73;109073;1256;60108;-72
2024/01/22 11:56:51;;;;;;;20.80;14.00;;;;;;;0.53;61.04;102168.65;109124;1256;64281;-71
2024/01/22 11:59:22;;;;;;;25.90;17.00;;;;;;;0.52;60.89;102167.97;109107;1259;58225;-70
2024/01/22 12:02:10;;;;;;;21.10;14.80;;;;;;;0.53;60.82;102161.73;109109;1256;62437;-71